createdAt,value
2023-02-11T00:02:20.214Z,13.57
2023-02-11T00:07:22.504Z,14.50
2023-02-11T00:12:25.142Z,13.70
2023-02-11T00:17:28.993Z,14.20
2023-02-11T00:22:31.447Z,15.07
2023-02-11T00:27:33.551Z,13.37
2023-02-11T00:32:37.474Z,13.20
2023-02-11T00:37:39.609Z,14.90
2023-02-11T00:42:41.795Z,13.27
2023-02-11T00:47:45.213Z,13.80
2023-02-11T00:52:47.180Z,13.73
2023-02-11T00:57:49.297Z,14.40
2023-02-11T01:02:52.642Z,13.37
2023-02-11T01:08:09.929Z,12.83
2023-02-11T01:13:11.991Z,13.00
2023-02-11T01:18:15.336Z,13.47
2023-02-11T01:23:17.596Z,13.33
2023-02-11T01:28:21.573Z,13.17
2023-02-11T01:33:25.154Z,13.37
2023-02-11T01:38:26.990Z,13.53
2023-02-11T01:43:32.659Z,13.00
2023-02-11T01:48:39.357Z,12.60
2023-02-11T01:53:44.052Z,13.40
2023-02-11T01:58:48.964Z,14.50
2023-02-11T02:03:55.286Z,14.57
2023-02-11T02:09:02.082Z,13.10
2023-02-11T02:14:04.028Z,13.73
2023-02-11T02:19:37.027Z,14.57
2023-02-11T02:24:56.134Z,14.20
2023-02-11T02:30:24.412Z,14.13
2023-02-11T02:35:37.406Z,13.33
2023-02-11T02:40:45.257Z,13.70
2023-02-11T02:45:47.209Z,13.80
2023-02-11T02:50:58.210Z,13.63
2023-02-11T02:56:09.007Z,13.60
2023-02-11T03:01:22.117Z,13.77
2023-02-11T03:06:34.482Z,15.00
2023-02-11T03:12:03.078Z,15.67
2023-02-11T03:17:06.965Z,15.73
2023-02-11T03:22:14.800Z,14.97
2023-02-11T03:27:22.136Z,17.30
2023-02-11T03:32:28.257Z,15.27
2023-02-11T03:38:13.120Z,15.80
2023-02-11T03:43:18.756Z,16.13
2023-02-11T03:48:25.809Z,15.60
2023-02-11T03:53:29.329Z,16.10
2023-02-11T03:58:31.839Z,17.10
2023-02-11T04:03:33.870Z,17.13
2023-02-11T04:08:37.047Z,18.00
2023-02-11T04:13:38.997Z,16.57
2023-02-11T04:18:41.153Z,17.27
2023-02-11T04:23:45.008Z,17.00
2023-02-11T04:28:46.797Z,17.97
2023-02-11T04:33:48.607Z,16.90
2023-02-11T04:38:52.128Z,18.37
2023-02-11T04:43:54.212Z,17.77
2023-02-11T04:48:56.776Z,17.27
2023-02-11T04:54:00.379Z,18.70
2023-02-11T04:59:02.759Z,17.17
2023-02-11T05:04:04.733Z,18.50
2023-02-11T05:09:08.362Z,17.83
2023-02-11T05:14:10.559Z,19.23
2023-02-11T05:19:12.600Z,18.70
2023-02-11T05:24:16.287Z,19.37
2023-02-11T05:29:18.520Z,19.87
2023-02-11T05:34:20.811Z,19.57
2023-02-11T05:39:24.450Z,20.73
2023-02-11T05:44:26.659Z,19.60
2023-02-11T05:49:28.590Z,20.73
2023-02-11T05:54:32.045Z,20.07
2023-02-11T05:59:33.774Z,19.90
2023-02-11T06:04:36.773Z,20.17
2023-02-11T06:09:40.645Z,20.97
2023-02-11T06:14:42.894Z,21.30
2023-02-11T06:19:44.847Z,22.37
2023-02-11T06:25:00.812Z,21.47
2023-02-11T06:30:04.394Z,23.43
2023-02-11T06:35:18.759Z,21.00
2023-02-11T06:40:22.202Z,22.17
2023-02-11T06:45:24.339Z,22.73
2023-02-11T06:50:26.822Z,22.57
2023-02-11T06:55:30.080Z,22.60
2023-02-11T07:00:31.932Z,23.70
2023-02-11T07:05:51.738Z,25.17
2023-02-11T07:10:55.634Z,23.77
2023-02-11T07:15:57.907Z,23.37
2023-02-11T07:20:59.780Z,23.63
2023-02-11T07:26:04.662Z,24.40
2023-02-11T07:31:07.937Z,21.80
2023-02-11T07:36:12.000Z,22.17
2023-02-11T07:41:17.286Z,20.83
2023-02-11T07:46:20.664Z,22.67
2023-02-11T07:51:25.544Z,20.73
2023-02-11T07:56:30.384Z,21.13
2023-02-11T08:01:33.258Z,20.53
2023-02-11T08:06:35.612Z,21.03
2023-02-11T08:12:00.274Z,20.37
2023-02-11T08:23:12.052Z,19.57
2023-02-11T08:28:15.476Z,19.33
2023-02-11T08:33:30.397Z,18.87
2023-02-11T08:38:32.646Z,19.80
2023-02-11T08:43:36.784Z,18.30
2023-02-11T08:48:39.048Z,18.43
2023-02-11T08:53:41.639Z,19.87
2023-02-11T08:58:45.347Z,19.07
2023-02-11T09:03:47.560Z,20.73
2023-02-11T09:08:52.318Z,18.37
2023-02-11T09:13:55.803Z,19.60
2023-02-11T09:18:59.154Z,18.63
2023-02-11T09:24:01.088Z,18.20
2023-02-11T09:29:05.384Z,18.23
2023-02-11T09:34:08.201Z,18.90
2023-02-11T09:39:13.582Z,19.43
2023-02-11T09:44:21.624Z,18.00
2023-02-11T09:49:31.694Z,18.60
2023-02-11T09:54:37.349Z,17.40
2023-02-11T09:59:41.729Z,17.93
2023-02-11T10:05:07.517Z,17.37
2023-02-11T10:10:23.388Z,16.73
2023-02-11T10:15:41.206Z,16.70
2023-02-11T10:20:56.315Z,16.67
2023-02-11T10:25:58.893Z,17.60
2023-02-11T10:31:05.615Z,17.13
2023-02-11T10:36:11.008Z,16.87
2023-02-11T10:41:17.535Z,17.10
2023-02-11T10:46:24.678Z,17.13
2023-02-11T10:51:28.921Z,17.60
2023-02-11T10:56:34.462Z,15.90
2023-02-11T11:01:45.940Z,17.53
2023-02-11T11:07:16.729Z,17.43
2023-02-11T11:12:34.226Z,18.30
2023-02-11T11:17:38.455Z,17.87
2023-02-11T11:22:41.428Z,17.70
2023-02-11T11:27:49.458Z,16.50
2023-02-11T11:32:53.811Z,17.10
2023-02-11T11:38:02.049Z,16.57
2023-02-11T11:43:26.540Z,17.83
2023-02-11T11:48:35.214Z,17.23
2023-02-11T11:54:00.849Z,16.70
2023-02-11T11:59:11.269Z,15.50
2023-02-11T12:04:37.386Z,15.80
2023-02-11T12:09:53.475Z,16.20
2023-02-11T12:15:07.756Z,16.97
2023-02-11T12:26:35.884Z,15.23
2023-02-11T12:31:51.380Z,16.03
2023-02-11T12:37:08.067Z,15.60
2023-02-11T12:42:43.813Z,15.17
2023-02-11T12:48:00.584Z,15.27
2023-02-11T12:53:35.665Z,15.33
2023-02-11T12:58:45.103Z,15.60
2023-02-11T13:03:53.717Z,14.07
2023-02-11T13:09:03.149Z,13.57
2023-02-11T13:14:12.571Z,11.87
2023-02-11T13:19:21.531Z,13.93
2023-02-11T13:24:34.417Z,11.70
2023-02-11T13:29:53.609Z,13.07
2023-02-11T13:40:23.687Z,12.37
2023-02-11T13:45:44.029Z,12.30
2023-02-11T13:50:49.134Z,12.73
2023-02-11T13:56:05.677Z,10.40
2023-02-11T14:01:08.199Z,11.17
2023-02-11T14:06:13.704Z,11.53
2023-02-11T14:11:49.507Z,11.50
2023-02-11T14:17:20.968Z,12.27
2023-02-11T14:22:26.091Z,10.30
2023-02-11T14:27:36.156Z,10.07
2023-02-11T14:32:51.542Z,11.90
2023-02-11T14:37:59.650Z,9.90
2023-02-11T14:43:17.382Z,8.90
2023-02-11T14:48:30.628Z,8.20
2023-02-11T14:53:34.537Z,8.17
2023-02-11T14:58:46.331Z,7.27
2023-02-11T15:03:49.802Z,6.77
2023-02-11T15:08:54.086Z,7.60
2023-02-11T15:13:59.951Z,7.17
2023-02-11T15:19:05.374Z,7.63
2023-02-11T15:24:23.670Z,7.87
2023-02-11T15:29:28.524Z,6.97
2023-02-11T15:34:30.692Z,7.33
2023-02-11T15:39:36.708Z,9.00
2023-02-11T15:44:40.794Z,8.60
2023-02-11T15:49:52.426Z,8.07
2023-02-11T15:54:57.821Z,8.10
2023-02-11T16:00:16.695Z,10.17
2023-02-11T16:05:27.100Z,9.20
2023-02-11T16:10:31.547Z,9.37
2023-02-11T16:15:46.169Z,8.97
2023-02-11T16:20:49.782Z,8.43
2023-02-11T16:25:58.902Z,9.90
2023-02-11T16:31:02.848Z,8.67
2023-02-11T16:36:11.609Z,9.53
2023-02-11T16:41:24.355Z,9.10
2023-02-11T16:46:28.486Z,9.37
2023-02-11T16:51:31.160Z,9.73
2023-02-11T16:56:32.948Z,7.87
2023-02-11T17:01:37.782Z,9.30
2023-02-11T17:06:40.645Z,8.90
2023-02-11T17:11:42.941Z,9.47
2023-02-11T17:16:49.688Z,7.80
2023-02-11T17:21:52.968Z,7.80
2023-02-11T17:26:54.818Z,8.40
2023-02-11T17:31:58.119Z,7.63
2023-02-11T17:37:00.395Z,8.33
2023-02-11T17:42:02.240Z,7.13
2023-02-11T17:47:05.596Z,7.83
2023-02-11T17:52:10.444Z,7.33
2023-02-11T17:57:13.271Z,7.93
2023-02-11T18:02:16.495Z,7.70
2023-02-11T18:07:18.268Z,7.67
2023-02-11T18:12:20.409Z,8.07
2023-02-11T18:17:23.596Z,7.73
2023-02-11T18:22:25.549Z,7.17
2023-02-11T18:27:34.195Z,7.63
2023-02-11T18:32:37.699Z,6.83
2023-02-11T18:37:39.939Z,6.27
2023-02-11T18:42:41.757Z,6.27
2023-02-11T18:47:45.516Z,6.50
2023-02-11T18:52:47.424Z,6.70
2023-02-11T18:57:49.503Z,6.43
2023-02-11T19:02:52.681Z,6.50
2023-02-11T19:07:58.895Z,5.63
2023-02-11T19:13:00.898Z,5.90
2023-02-11T19:18:12.692Z,6.07
2023-02-11T19:23:14.612Z,6.83
2023-02-11T19:28:16.450Z,6.07
2023-02-11T19:33:20.004Z,5.33
2023-02-11T19:38:22.059Z,5.63
2023-02-11T19:43:24.432Z,6.13
2023-02-11T19:48:28.443Z,5.80
2023-02-11T19:53:30.195Z,5.60
2023-02-11T19:58:32.741Z,6.37
2023-02-11T20:03:36.751Z,5.90
2023-02-11T20:08:39.688Z,6.40
2023-02-11T20:13:42.272Z,5.17
2023-02-11T20:18:46.918Z,5.90
2023-02-11T20:23:50.142Z,5.77
2023-02-11T20:28:53.895Z,5.83
2023-02-11T20:33:57.488Z,5.77
2023-02-11T20:39:00.606Z,6.37
2023-02-11T20:44:05.127Z,5.53
2023-02-11T20:49:11.080Z,4.70
2023-02-11T20:54:13.928Z,4.97
2023-02-11T20:59:16.387Z,5.23
2023-02-11T21:04:21.875Z,5.00
2023-02-11T21:09:26.180Z,5.43
2023-02-11T21:14:28.927Z,5.37
2023-02-11T21:19:32.565Z,5.23
2023-02-11T21:24:34.706Z,4.90
2023-02-11T21:29:52.622Z,4.50
2023-02-11T21:34:57.221Z,4.57
2023-02-11T21:39:59.219Z,4.60
2023-02-11T21:45:01.341Z,4.90
2023-02-11T21:50:05.886Z,4.53
2023-02-11T21:55:08.584Z,4.80
2023-02-11T22:00:12.087Z,4.30
2023-02-11T22:05:15.824Z,4.13
2023-02-11T22:10:17.870Z,4.17
2023-02-11T22:15:20.083Z,4.90
2023-02-11T22:20:23.187Z,3.17
2023-02-11T22:25:25.392Z,4.13
2023-02-11T22:30:27.588Z,3.60
2023-02-11T22:35:31.514Z,3.30
2023-02-11T22:40:33.328Z,3.13
2023-02-11T22:45:35.377Z,3.20
2023-02-11T22:50:39.155Z,2.67
2023-02-11T22:55:41.271Z,3.20
2023-02-11T23:00:43.604Z,2.83
2023-02-11T23:05:47.204Z,2.93
2023-02-11T23:10:49.395Z,2.30
2023-02-11T23:15:51.504Z,3.10
2023-02-11T23:20:54.664Z,2.73
2023-02-11T23:25:57.107Z,2.40
2023-02-11T23:30:59.698Z,2.97
2023-02-11T23:36:04.140Z,2.70
2023-02-11T23:41:06.334Z,2.80
2023-02-11T23:46:09.682Z,2.50
2023-02-11T23:51:13.564Z,2.27
2023-02-11T23:56:17.773Z,2.50
